Wellton, Arizona
Current Conditions -  °F | °C
As of 1:57 PM on Saturday 22 Nov 2014 (Local Time) from KNYL Reporting Station
Broken Clouds Broken Clouds  
Wind Chill: 76°   Ceiling: 25000
Heat Index: 76°   Visibility: 10mi
Dew Point: 36°   Wind: 5mph
Humidity: 23%   Direction: 270°W
Pressure: 29.99"   Gusts: NA
Location:  32.67°N, 114.15°W
Report Text: KNYL 222057Z 27004KT 10SM BKN250 24/02 A2999 RMK AO2 SLP153 T02440022 56029 $
Loading
Personal Weather Stations






























Interactive Weather Map New forecast layout! Learn more

10-Day Weather Forecast

Advertisements
Track Severe Weather on mobile